Time;durP1;ratioP1;P1;durP2;ratioP2;P2;SDS_P1;SDS_P2;PMS_P1;PMS_P2;Temp;Humidity;BMP_temperature;BMP_pressure;BME280_temperature;BME280_humidity;BME280_pressure;Samples;Min_cycle;Max_cycle;Signal;HPM_P1;HPM_P2
2021/09/26 00:00:22;;;;;;;20.67;13.30;;;460.90;1868.80;;;;;;5116310;28;20091;-63
2021/09/26 00:02:48;;;;;;;24.98;13.73;;;460.90;1868.80;;;;;;5116114;28;20047;-62
2021/09/26 00:05:14;;;;;;;21.73;14.68;;;460.90;1868.80;;;;;;5116028;28;20462;-62
2021/09/26 00:07:40;;;;;;;17.27;12.27;;;460.90;1868.80;;;;;;5115980;28;20465;-63
2021/09/26 00:10:09;;;;;;;23.45;13.20;;;460.90;1868.80;;;;;;5114850;28;20023;-63
2021/09/26 00:12:36;;;;;;;23.15;12.35;;;460.90;1868.80;;;;;;5115979;28;20023;-62
2021/09/26 00:15:04;;;;;;;16.77;13.18;;;460.90;1868.80;;;;;;5116346;28;20019;-63
2021/09/26 00:17:30;;;;;;;20.67;12.13;;;460.80;1868.80;;;;;;5116026;28;20020;-62
2021/09/26 00:19:57;;;;;;;20.67;13.27;;;460.80;1868.80;;;;;;5115862;28;20089;-62
2021/09/26 00:22:24;;;;;;;17.40;12.75;;;460.80;1868.80;;;;;;5115909;28;20024;-62
2021/09/26 00:24:49;;;;;;;21.80;13.60;;;460.80;1868.80;;;;;;5115620;28;20036;-62
2021/09/26 00:27:16;;;;;;;21.20;13.40;;;460.80;1868.80;;;;;;5115652;28;20032;-62
2021/09/26 00:29:42;;;;;;;17.52;13.65;;;460.90;1868.80;;;;;;5115503;28;20027;-63
2021/09/26 00:32:08;;;;;;;20.95;13.60;;;460.90;1868.80;;;;;;5115725;28;20100;-63
2021/09/26 00:34:35;;;;;;;20.00;13.25;;;460.90;1868.80;;;;;;5115292;28;20051;-62
2021/09/26 00:37:00;;;;;;;20.65;13.40;;;460.90;1868.80;;;;;;5115525;28;20365;-63
2021/09/26 00:39:26;;;;;;;18.58;12.77;;;460.90;1868.80;;;;;;5115506;28;20020;-62
2021/09/26 00:41:52;;;;;;;17.27;12.45;;;460.90;1843.20;;;;;;5113935;28;20067;-63
2021/09/26 00:44:18;;;;;;;22.27;12.00;;;460.90;1843.20;;;;;;5115152;28;20035;-62
2021/09/26 00:46:44;;;;;;;17.60;12.75;;;460.90;1843.20;;;;;;5115183;28;20526;-62
2021/09/26 00:49:10;;;;;;;23.63;11.95;;;460.90;1843.20;;;;;;5114883;28;20032;-62
2021/09/26 00:51:36;;;;;;;25.58;13.40;;;460.90;1868.80;;;;;;5115365;28;20058;-62
2021/09/26 00:54:02;;;;;;;19.92;12.70;;;460.90;1868.80;;;;;;5115265;28;20028;-62
2021/09/26 00:56:31;;;;;;;19.08;13.05;;;460.90;1843.20;;;;;;5115247;28;20027;-63
2021/09/26 00:58:57;;;;;;;18.17;13.65;;;460.90;1843.20;;;;;;5114247;28;20439;-62
2021/09/26 01:01:23;;;;;;;18.13;12.65;;;460.90;1868.80;;;;;;5115245;28;20043;-63
2021/09/26 01:03:48;;;;;;;16.25;12.40;;;460.90;1868.80;;;;;;5113486;28;20089;-62
2021/09/26 01:06:58;;;;;;;17.58;11.82;;;461.00;1868.80;;;;;;5113693;28;20385;-62
2021/09/26 01:09:44;;;;;;;21.00;12.45;;;461.00;1868.80;;;;;;5072161;28;20036;-62
2021/09/26 01:12:31;;;;;;;16.73;12.70;;;460.90;1868.80;;;;;;5071962;28;20029;-62
2021/09/26 01:15:24;;;;;;;16.58;11.57;;;460.90;1868.80;;;;;;5072071;28;20101;-63
2021/09/26 01:18:03;;;;;;;18.38;12.20;;;460.90;1868.80;;;;;;5072110;28;20102;-62
2021/09/26 01:20:50;;;;;;;19.33;12.63;;;460.90;1868.80;;;;;;5055156;28;20529;-62
2021/09/26 01:23:41;;;;;;;18.65;12.80;;;460.90;1868.80;;;;;;5071891;28;20127;-63
2021/09/26 01:26:06;;;;;;;18.00;11.95;;;460.90;1868.80;;;;;;5071937;28;20500;-62
2021/09/26 01:28:33;;;;;;;29.08;12.30;;;460.90;1843.20;;;;;;5054986;28;20032;-62
2021/09/26 01:31:08;;;;;;;18.48;11.98;;;460.90;1843.20;;;;;;5071769;28;20150;-63
2021/09/26 01:33:40;;;;;;;24.55;12.07;;;460.90;1843.20;;;;;;5069762;28;20031;-62
2021/09/26 01:36:13;;;;;;;17.38;12.15;;;460.90;1843.20;;;;;;5071755;28;20032;-62
2021/09/26 01:38:53;;;;;;;16.85;12.45;;;460.90;1868.80;;;;;;5071482;28;20035;-62
2021/09/26 01:41:33;;;;;;;20.52;14.60;;;460.90;1843.20;;;;;;5071398;28;20398;-62
2021/09/26 01:44:05;;;;;;;27.38;13.75;;;460.80;1868.80;;;;;;5054297;28;20390;-62
2021/09/26 01:46:37;;;;;;;20.17;12.88;;;460.80;1868.80;;;;;;5085454;28;20028;-63
2021/09/26 01:49:19;;;;;;;20.88;12.55;;;460.80;1868.80;;;;;;5114205;28;20027;-62
2021/09/26 01:51:46;;;;;;;17.73;12.75;;;460.80;1843.20;;;;;;5114555;28;20020;-62
2021/09/26 01:54:15;;;;;;;22.00;12.68;;;460.80;1843.20;;;;;;5113617;28;20019;-62
2021/09/26 01:56:45;;;;;;;22.25;13.32;;;460.80;1868.80;;;;;;5113379;28;20030;-62
2021/09/26 01:59:12;;;;;;;20.48;11.98;;;460.80;1868.80;;;;;;5114001;28;20043;-62
2021/09/26 02:01:40;;;;;;;22.08;12.00;;;460.80;1868.80;;;;;;5113886;28;20500;-64
2021/09/26 02:04:06;;;;;;;19.40;11.77;;;460.80;1868.80;;;;;;5114127;28;20032;-62
2021/09/26 02:06:36;;;;;;;20.17;11.82;;;460.80;1868.80;;;;;;5113836;28;20015;-63
2021/09/26 02:09:03;;;;;;;21.73;13.35;;;460.80;1868.80;;;;;;5112689;28;20032;-63
2021/09/26 02:11:30;;;;;;;16.60;11.98;;;436.10;1843.20;;;;;;5114472;28;20026;-62
2021/09/26 02:13:56;;;;;;;19.30;12.50;;;436.10;1843.20;;;;;;5114040;28;20035;-62
2021/09/26 02:16:22;;;;;;;17.30;12.93;;;436.10;1843.20;;;;;;5114178;28;20019;-62
2021/09/26 02:18:49;;;;;;;19.95;13.15;;;436.00;1843.20;;;;;;5113609;28;20034;-63
2021/09/26 02:21:16;;;;;;;25.52;13.90;;;436.00;1843.20;;;;;;5114102;28;20027;-62
2021/09/26 02:23:42;;;;;;;21.42;12.95;;;436.00;1843.20;;;;;;5114003;28;20032;-63
2021/09/26 02:26:09;;;;;;;21.48;13.35;;;436.00;1843.20;;;;;;5113943;28;20361;-63
2021/09/26 02:28:35;;;;;;;15.88;12.98;;;436.00;1843.20;;;;;;5112452;28;20027;-62
2021/09/26 02:31:06;;;;;;;17.83;13.05;;;435.90;1843.20;;;;;;5113853;28;20053;-62
2021/09/26 02:33:33;;;;;;;21.15;13.75;;;435.90;1843.20;;;;;;5113855;28;20046;-62
2021/09/26 02:35:58;;;;;;;18.63;13.23;;;435.90;1843.20;;;;;;5113999;28;20024;-63
2021/09/26 02:38:24;;;;;;;21.80;13.85;;;435.90;1843.20;;;;;;5113911;28;20069;-63
2021/09/26 02:40:57;;;;;;;22.40;14.43;;;435.90;1843.20;;;;;;5113183;28;20529;-62
2021/09/26 02:43:54;;;;;;;20.23;13.13;;;435.80;1843.20;;;;;;5113595;28;20040;-62
2021/09/26 02:46:26;;;;;;;19.17;13.18;;;435.80;1843.20;;;;;;5051185;28;20036;-63
2021/09/26 02:48:52;;;;;;;21.05;13.80;;;435.70;1843.20;;;;;;5050248;28;20066;-63
2021/09/26 02:51:19;;;;;;;25.05;13.55;;;435.80;1817.60;;;;;;5050928;28;20116;-62
2021/09/26 02:53:46;;;;;;;25.83;13.63;;;435.70;1817.60;;;;;;5050883;28;20109;-63
2021/09/26 02:56:13;;;;;;;19.83;13.70;;;435.70;1843.20;;;;;;5051118;28;20021;-62
2021/09/26 02:58:39;;;;;;;22.35;13.93;;;435.70;1817.60;;;;;;5054118;28;20116;-62
2021/09/26 03:01:05;;;;;;;22.25;14.45;;;435.70;1843.20;;;;;;5037824;28;20017;-62
2021/09/26 03:03:31;;;;;;;24.02;15.43;;;435.70;1843.20;;;;;;5054734;28;20196;-62
2021/09/26 03:05:57;;;;;;;18.83;13.80;;;435.70;1843.20;;;;;;5054463;28;20521;-63
2021/09/26 03:08:24;;;;;;;20.73;14.45;;;435.70;1843.20;;;;;;5054669;28;20054;-63
2021/09/26 03:10:56;;;;;;;21.83;15.25;;;435.60;1817.60;;;;;;5054541;28;20057;-62
2021/09/26 03:13:22;;;;;;;27.45;16.30;;;435.70;1843.20;;;;;;5054384;28;20040;-63
2021/09/26 03:15:48;;;;;;;22.65;16.13;;;435.70;1817.60;;;;;;5054317;28;20028;-63
2021/09/26 03:18:14;;;;;;;30.88;18.55;;;435.60;1843.20;;;;;;5054387;28;20077;-63
2021/09/26 03:20:40;;;;;;;31.90;18.60;;;435.60;1843.20;;;;;;5054123;28;20025;-63
2021/09/26 03:23:06;;;;;;;35.20;22.77;;;435.60;1843.20;;;;;;5070490;28;20031;-63
2021/09/26 03:25:32;;;;;;;38.30;23.92;;;435.40;1817.60;;;;;;5117148;28;20036;-62
2021/09/26 03:27:58;;;;;;;39.90;26.23;;;435.50;1817.60;;;;;;5115955;28;20020;-63
2021/09/26 03:30:24;;;;;;;44.80;27.98;;;435.40;1817.60;;;;;;5117010;28;20107;-63
2021/09/26 03:32:50;;;;;;;48.90;28.15;;;435.40;1817.60;;;;;;5115306;28;20031;-62
2021/09/26 03:35:15;;;;;;;41.92;28.70;;;435.30;1843.20;;;;;;5116754;28;20027;-63
2021/09/26 03:37:42;;;;;;;41.60;29.55;;;435.40;1843.20;;;;;;5116744;28;20024;-62
2021/09/26 03:40:09;;;;;;;59.63;36.20;;;435.30;1843.20;;;;;;5116736;28;20032;-63
2021/09/26 03:42:36;;;;;;;60.13;38.30;;;435.30;1843.20;;;;;;5115864;28;20043;-62
2021/09/26 03:45:03;;;;;;;75.35;46.15;;;435.30;1843.20;;;;;;5116382;28;20038;-62
2021/09/26 03:47:28;;;;;;;75.00;46.60;;;435.30;1817.60;;;;;;5116127;28;20520;-63
2021/09/26 03:49:54;;;;;;;72.38;46.45;;;435.30;1843.20;;;;;;5116516;28;20111;-62
2021/09/26 03:52:20;;;;;;;67.13;45.55;;;435.30;1817.60;;;;;;5115155;28;20538;-62
2021/09/26 03:54:46;;;;;;;69.97;41.95;;;435.30;1817.60;;;;;;5116200;28;20032;-63
2021/09/26 03:57:12;;;;;;;59.13;39.15;;;435.30;1817.60;;;;;;5114735;28;20031;-62
2021/09/26 03:59:38;;;;;;;63.75;37.35;;;435.30;1817.60;;;;;;5116374;28;20031;-62
2021/09/26 04:02:04;;;;;;;52.50;31.98;;;435.30;1817.60;;;;;;5116108;28;20343;-62
2021/09/26 04:04:31;;;;;;;45.70;29.08;;;435.30;1792.00;;;;;;5116070;28;20031;-62
2021/09/26 04:06:57;;;;;;;44.65;26.10;;;435.30;1792.00;;;;;;5116298;28;20016;-62
2021/09/26 04:09:23;;;;;;;38.30;23.23;;;435.30;1792.00;;;;;;5115453;28;20028;-62
2021/09/26 04:11:48;;;;;;;31.88;22.10;;;435.30;1792.00;;;;;;5116458;28;20024;-62
2021/09/26 04:14:14;;;;;;;33.58;23.00;;;435.30;1792.00;;;;;;5115781;28;20498;-63
2021/09/26 04:16:40;;;;;;;32.95;22.85;;;435.30;1792.00;;;;;;5115788;28;20024;-64
2021/09/26 04:19:06;;;;;;;38.88;24.10;;;435.30;1792.00;;;;;;5115899;28;20027;-70
2021/09/26 04:21:31;;;;;;;38.78;24.95;;;435.30;1792.00;;;;;;5115841;28;20027;-64
2021/09/26 04:23:57;;;;;;;36.45;24.55;;;435.30;1792.00;;;;;;5115084;28;20031;-64
2021/09/26 04:26:24;;;;;;;35.17;23.73;;;435.30;1792.00;;;;;;5115921;28;20027;-64
2021/09/26 04:28:49;;;;;;;40.38;25.30;;;410.50;1792.00;;;;;;5115537;28;20058;-64
2021/09/26 04:31:15;;;;;;;40.53;25.88;;;435.20;1792.00;;;;;;5115702;28;20023;-64
2021/09/26 04:33:41;;;;;;;35.90;26.75;;;435.20;1766.40;;;;;;5115450;28;20051;-64
2021/09/26 04:36:07;;;;;;;39.50;26.02;;;435.20;1792.00;;;;;;5115098;28;20023;-64
2021/09/26 04:38:33;;;;;;;36.65;24.98;;;435.20;1792.00;;;;;;5115869;28;20043;-64
2021/09/26 04:41:00;;;;;;;32.03;23.38;;;435.20;1792.00;;;;;;5114643;28;20023;-64
2021/09/26 04:43:25;;;;;;;34.85;22.65;;;435.20;1792.00;;;;;;5113910;28;20039;-64
2021/09/26 04:45:51;;;;;;;36.13;21.48;;;435.20;1792.00;;;;;;5115388;28;20065;-64
2021/09/26 04:48:17;;;;;;;27.80;19.25;;;410.50;1792.00;;;;;;5115364;28;20031;-64
2021/09/26 04:50:43;;;;;;;27.85;18.88;;;435.20;1792.00;;;;;;5115312;28;20055;-64
2021/09/26 04:53:08;;;;;;;25.23;18.58;;;435.20;1792.00;;;;;;5115205;28;20023;-63
2021/09/26 04:55:34;;;;;;;35.10;18.45;;;435.20;1792.00;;;;;;5115070;28;20020;-64
2021/09/26 04:58:00;;;;;;;30.35;19.67;;;435.20;1792.00;;;;;;5114493;28;20027;-64
2021/09/26 05:00:26;;;;;;;33.22;19.50;;;435.20;1792.00;;;;;;5115128;28;20465;-64
2021/09/26 05:02:52;;;;;;;34.78;21.33;;;435.20;1792.00;;;;;;5115172;28;20027;-64
2021/09/26 05:05:18;;;;;;;28.70;20.90;;;410.50;1792.00;;;;;;5114973;28;20024;-64
2021/09/26 05:07:44;;;;;;;30.50;21.83;;;410.50;1792.00;;;;;;5113358;28;20104;-63
2021/09/26 05:10:10;;;;;;;33.17;21.88;;;435.20;1792.00;;;;;;5114800;28;20042;-62
2021/09/26 05:12:36;;;;;;;36.10;23.17;;;435.20;1792.00;;;;;;5113621;28;20042;-64
2021/09/26 05:15:06;;;;;;;33.63;23.55;;;435.20;1792.00;;;;;;5113518;28;20023;-62
2021/09/26 05:17:33;;;;;;;35.10;25.08;;;410.50;1817.60;;;;;;5113174;28;20106;-62
2021/09/26 05:19:59;;;;;;;44.30;27.65;;;435.20;1792.00;;;;;;5113045;28;20102;-62
2021/09/26 05:22:26;;;;;;;45.17;28.55;;;435.20;1817.60;;;;;;5112641;28;20122;-61
2021/09/26 05:24:51;;;;;;;40.83;28.75;;;435.20;1817.60;;;;;;5111086;28;20123;-62
2021/09/26 05:27:17;;;;;;;41.85;29.08;;;435.20;1817.60;;;;;;5110317;28;20149;-62
2021/09/26 05:29:43;;;;;;;47.28;27.83;;;435.30;1792.00;;;;;;5113966;28;20354;-63
2021/09/26 05:32:09;;;;;;;42.53;27.42;;;435.30;1817.60;;;;;;5111532;28;20489;-62
2021/09/26 05:34:35;;;;;;;41.88;27.15;;;435.30;1817.60;;;;;;5112891;28;20024;-62
2021/09/26 05:37:01;;;;;;;44.10;26.83;;;435.30;1817.60;;;;;;5113345;28;20026;-62
2021/09/26 05:39:28;;;;;;;36.00;26.40;;;435.40;1817.60;;;;;;5112827;28;20027;-63
2021/09/26 05:41:54;;;;;;;38.72;26.25;;;435.40;1817.60;;;;;;5114148;28;20447;-62
2021/09/26 05:44:20;;;;;;;37.85;23.63;;;435.40;1817.60;;;;;;5114075;28;20031;-62
2021/09/26 05:46:46;;;;;;;35.42;24.60;;;435.40;1817.60;;;;;;5113754;28;20032;-62
2021/09/26 05:49:12;;;;;;;36.95;23.10;;;435.40;1817.60;;;;;;5114468;28;20023;-62
2021/09/26 05:51:38;;;;;;;37.00;23.80;;;435.60;1817.60;;;;;;5112855;28;20028;-62
2021/09/26 05:54:03;;;;;;;43.20;22.42;;;435.60;1817.60;;;;;;5112845;28;20492;-63
2021/09/26 05:56:29;;;;;;;33.80;23.55;;;435.60;1817.60;;;;;;5113616;28;20114;-62
2021/09/26 05:58:55;;;;;;;40.35;24.58;;;435.70;1817.60;;;;;;5113963;28;20475;-62
2021/09/26 06:01:21;;;;;;;38.03;24.45;;;435.70;1817.60;;;;;;5114215;28;20024;-62
2021/09/26 06:03:46;;;;;;;42.60;25.98;;;435.70;1817.60;;;;;;5114046;28;20031;-62
2021/09/26 06:06:13;;;;;;;39.60;26.30;;;435.70;1817.60;;;;;;5113585;28;20358;-63
2021/09/26 06:08:38;;;;;;;35.67;24.42;;;435.70;1817.60;;;;;;5114092;28;20030;-62
2021/09/26 06:11:04;;;;;;;36.90;24.90;;;435.80;1817.60;;;;;;5114060;28;20031;-62
2021/09/26 06:13:30;;;;;;;35.95;24.17;;;435.80;1817.60;;;;;;5113908;28;20024;-62
2021/09/26 06:15:56;;;;;;;35.45;21.90;;;435.90;1817.60;;;;;;5114034;28;20039;-63
2021/09/26 06:18:22;;;;;;;29.60;20.90;;;435.90;1817.60;;;;;;5114152;28;20074;-62
2021/09/26 06:20:55;;;;;;;35.22;20.77;;;435.90;1817.60;;;;;;5113765;28;20398;-62
2021/09/26 06:23:21;;;;;;;34.95;21.98;;;435.90;1817.60;;;;;;5113753;28;20038;-63
2021/09/26 06:25:47;;;;;;;32.60;21.95;;;435.90;1817.60;;;;;;5095837;28;20031;-62
2021/09/26 06:28:13;;;;;;;30.30;18.52;;;435.90;1817.60;;;;;;5112473;28;20477;-62
2021/09/26 06:30:39;;;;;;;28.63;17.65;;;436.00;1817.60;;;;;;5113868;28;20069;-63
2021/09/26 06:33:05;;;;;;;28.67;16.35;;;436.00;1817.60;;;;;;5116378;28;20086;-62
2021/09/26 06:35:32;;;;;;;22.58;15.23;;;436.00;1817.60;;;;;;5117791;28;20019;-63
2021/09/26 06:37:57;;;;;;;26.35;15.52;;;436.10;1817.60;;;;;;5117860;28;20030;-63
2021/09/26 06:40:23;;;;;;;21.63;14.32;;;460.80;1843.20;;;;;;5117871;28;20027;-63
2021/09/26 06:42:49;;;;;;;26.10;15.63;;;460.80;1843.20;;;;;;5117607;28;20051;-62
2021/09/26 06:45:15;;;;;;;26.98;15.98;;;460.80;1868.80;;;;;;5117142;28;20116;-63
2021/09/26 06:47:41;;;;;;;22.80;16.27;;;460.90;1868.80;;;;;;5117848;28;20082;-64
2021/09/26 06:50:08;;;;;;;23.92;17.05;;;460.90;1843.20;;;;;;5117767;28;20024;-62
2021/09/26 06:52:34;;;;;;;31.05;18.52;;;461.00;1868.80;;;;;;5117024;28;20024;-63
2021/09/26 06:55:00;;;;;;;31.40;18.67;;;461.10;1868.80;;;;;;5117877;28;20082;-63
2021/09/26 06:57:25;;;;;;;29.77;18.35;;;461.20;1868.80;;;;;;5117576;28;20056;-63
2021/09/26 06:59:51;;;;;;;28.83;19.48;;;461.30;1868.80;;;;;;5116176;28;20038;-63
2021/09/26 07:02:21;;;;;;;37.15;25.17;;;461.40;1868.80;;;;;;5117142;28;20427;-64
2021/09/26 07:04:51;;;;;;;72.00;41.40;;;461.50;1868.80;;;;;;5114364;28;20561;-63
2021/09/26 07:07:17;;;;;;;185.02;99.38;;;461.60;1868.80;;;;;;5115810;28;20050;-64
2021/09/26 07:09:43;;;;;;;255.88;141.68;;;486.40;1843.20;;;;;;5114383;28;20028;-62
2021/09/26 07:12:10;;;;;;;184.73;117.07;;;486.50;1843.20;;;;;;5115530;28;20065;-64
2021/09/26 07:14:36;;;;;;;133.82;88.97;;;486.60;1843.20;;;;;;5115961;28;20462;-64
2021/09/26 07:17:02;;;;;;;87.10;57.67;;;486.80;1817.60;;;;;;5114802;28;20027;-64
2021/09/26 07:19:29;;;;;;;54.83;39.10;;;486.90;1792.00;;;;;;5128386;27;20027;-66
2021/09/26 07:21:55;;;;;;;38.08;26.48;;;487.00;1792.00;;;;;;5115382;28;20354;-63
2021/09/26 07:24:21;;;;;;;33.22;23.42;;;487.10;1792.00;;;;;;5115064;28;20088;-64
2021/09/26 07:26:46;;;;;;;38.05;25.15;;;487.30;1792.00;;;;;;5115452;28;20047;-63
2021/09/26 07:29:12;;;;;;;28.70;19.50;;;512.00;1766.40;;;;;;5115369;28;20024;-63
2021/09/26 07:31:38;;;;;;;28.30;17.27;;;512.30;1766.40;;;;;;5114743;28;20020;-63
2021/09/26 07:34:04;;;;;;;21.42;14.65;;;512.40;1740.80;;;;;;5115513;28;20035;-63
2021/09/26 07:36:30;;;;;;;23.20;15.57;;;512.60;1715.20;;;;;;5115001;28;20423;-67
2021/09/26 07:38:56;;;;;;;24.90;15.30;;;512.80;1715.20;;;;;;5114894;28;20039;-64
2021/09/26 07:41:22;;;;;;;25.75;15.27;;;537.60;1740.80;;;;;;5114782;28;20389;-63
2021/09/26 07:43:47;;;;;;;25.55;14.35;;;537.60;1740.80;;;;;;5115107;28;20067;-63
2021/09/26 07:46:14;;;;;;;27.45;14.30;;;537.80;1740.80;;;;;;5115507;28;20373;-64
2021/09/26 07:48:40;;;;;;;24.33;14.02;;;537.90;1715.20;;;;;;5114890;28;20055;-64
2021/09/26 07:51:05;;;;;;;19.52;12.43;;;538.10;1715.20;;;;;;5115031;28;20428;-63
2021/09/26 07:53:33;;;;;;;21.27;13.52;;;538.20;1689.60;;;;;;5112927;28;20026;-63
2021/09/26 07:55:59;;;;;;;21.17;12.13;;;538.30;1689.60;;;;;;5114445;28;20024;-63
2021/09/26 07:58:28;;;;;;;30.52;13.95;;;538.40;1664.00;;;;;;5116123;28;20035;-63
2021/09/26 08:00:55;;;;;;;33.65;15.30;;;563.20;1689.60;;;;;;5115787;28;20049;-63
2021/09/26 08:03:21;;;;;;;26.52;15.18;;;563.30;1664.00;;;;;;5116029;28;20768;-63
2021/09/26 08:05:47;;;;;;;27.77;15.05;;;563.40;1638.40;;;;;;5116584;28;20106;-63
2021/09/26 08:08:13;;;;;;;21.80;13.30;;;563.60;1638.40;;;;;;5114444;28;20164;-63
2021/09/26 08:10:39;;;;;;;19.90;11.57;;;563.70;1638.40;;;;;;5114623;28;20059;-63
2021/09/26 08:13:05;;;;;;;20.58;11.82;;;563.70;1638.40;;;;;;5115807;28;20146;-64
2021/09/26 08:15:31;;;;;;;14.18;10.00;;;563.80;1638.40;;;;;;5115315;28;20038;-63
2021/09/26 08:17:58;;;;;;;21.70;9.73;;;564.00;1638.40;;;;;;5115781;28;20027;-63
2021/09/26 08:20:25;;;;;;;13.55;9.23;;;588.80;1587.20;;;;;;5114467;28;20032;-63
2021/09/26 08:22:52;;;;;;;15.23;9.68;;;589.00;1561.60;;;;;;5115816;28;20080;-63
2021/09/26 08:25:22;;;;;;;14.98;9.48;;;589.10;1561.60;;;;;;5115350;28;20055;-63
2021/09/26 08:27:50;;;;;;;13.43;8.93;;;589.30;1561.60;;;;;;5115526;28;20016;-63
2021/09/26 08:30:18;;;;;;;15.05;8.73;;;589.60;1536.00;;;;;;5115143;28;20027;-63
2021/09/26 08:32:45;;;;;;;19.75;8.73;;;589.60;1484.80;;;;;;5115826;28;20015;-63
2021/09/26 08:35:11;;;;;;;14.32;7.82;;;589.70;1510.40;;;;;;5115740;28;20028;-63
2021/09/26 08:37:38;;;;;;;22.20;8.85;;;614.40;1459.20;;;;;;5115324;28;20039;-63
2021/09/26 08:40:06;;;;;;;22.58;8.57;;;614.60;1459.20;;;;;;5115237;28;20434;-63
2021/09/26 08:42:44;;;;;;;24.17;9.10;;;614.70;1459.20;;;;;;5113913;28;20487;-64
2021/09/26 08:45:14;;;;;;;20.17;8.93;;;614.80;1459.20;;;;;;5115359;28;20058;-64
2021/09/26 08:47:42;;;;;;;14.95;7.93;;;614.90;1459.20;;;;;;5114089;28;20015;-63
2021/09/26 08:50:09;;;;;;;9.88;7.07;;;615.00;1433.60;;;;;;5113568;28;20016;-63
2021/09/26 08:52:36;;;;;;;14.30;7.07;;;615.10;1382.40;;;;;;5115078;28;20028;-63
2021/09/26 08:55:02;;;;;;;9.32;6.57;;;615.20;1382.40;;;;;;5114697;28;20028;-63
2021/09/26 08:57:28;;;;;;;13.80;6.78;;;640.00;1356.80;;;;;;5115259;28;20024;-63
2021/09/26 08:59:54;;;;;;;16.00;7.13;;;640.00;1331.20;;;;;;5114718;28;20495;-63
2021/09/26 09:02:20;;;;;;;12.27;6.53;;;640.10;1331.20;;;;;;5113646;28;20438;-63
2021/09/26 09:04:46;;;;;;;10.02;6.47;;;640.20;1331.20;;;;;;5113322;28;20039;-63
2021/09/26 09:07:12;;;;;;;10.15;6.00;;;640.30;1331.20;;;;;;5114924;28;20033;-63
2021/09/26 09:09:48;;;;;;;11.60;6.18;;;640.50;1280.00;;;;;;5114810;28;20034;-63
2021/09/26 09:12:15;;;;;;;17.80;6.18;;;640.60;1254.40;;;;;;5114716;28;20026;-63
2021/09/26 09:15:01;;;;;;;8.55;5.90;;;640.80;1254.40;;;;;;5114360;28;20020;-63
2021/09/26 09:17:28;;;;;;;9.38;5.38;;;665.60;1280.00;;;;;;5114800;28;20043;-64
2021/09/26 09:20:13;;;;;;;12.32;6.28;;;665.70;1254.40;;;;;;5114565;28;20019;-63
2021/09/26 09:22:41;;;;;;;13.93;6.00;;;665.80;1203.20;;;;;;5114642;28;20016;-63
2021/09/26 09:25:08;;;;;;;11.50;6.35;;;666.00;1228.80;;;;;;5114334;28;20039;-63
2021/09/26 09:27:34;;;;;;;9.32;6.30;;;666.00;1228.80;;;;;;5112990;28;20100;-63
2021/09/26 09:30:04;;;;;;;9.32;6.68;;;666.00;1254.40;;;;;;5114148;28;20034;-63
2021/09/26 09:32:30;;;;;;;14.60;6.40;;;666.20;1254.40;;;;;;5114680;28;20020;-64
2021/09/26 09:34:56;;;;;;;10.93;6.72;;;666.30;1228.80;;;;;;5114651;28;20031;-63
2021/09/26 09:37:25;;;;;;;13.70;6.93;;;666.40;1228.80;;;;;;5114511;28;20047;-63
2021/09/26 09:40:08;;;;;;;8.63;6.32;;;666.40;1203.20;;;;;;5114153;28;20027;-63
2021/09/26 09:42:44;;;;;;;10.85;6.68;;;691.30;1177.60;;;;;;5114135;28;20485;-63
2021/09/26 09:45:22;;;;;;;8.18;6.28;;;691.30;1177.60;;;;;;5113837;28;20120;-63
2021/09/26 09:48:16;;;;;;;9.63;6.43;;;691.40;1152.00;;;;;;5113041;28;20028;-63
2021/09/26 09:50:48;;;;;;;8.03;6.30;;;691.50;1126.40;;;;;;5114229;28;20054;-63
2021/09/26 09:53:28;;;;;;;12.45;5.80;;;691.50;1152.00;;;;;;5114324;28;20264;-63
2021/09/26 09:56:18;;;;;;;10.18;5.15;;;691.50;1152.00;;;;;;5112767;28;20031;-63
2021/09/26 09:58:57;;;;;;;12.43;6.22;;;691.60;1126.40;;;;;;5113837;28;20111;-63
2021/09/26 10:01:26;;;;;;;5.57;4.78;;;691.70;1100.80;;;;;;5112676;28;20036;-63
2021/09/26 10:03:54;;;;;;;7.82;4.97;;;691.70;1100.80;;;;;;5112386;28;20039;-63
2021/09/26 10:06:26;;;;;;;7.20;5.13;;;691.80;1100.80;;;;;;5113336;28;20023;-63
2021/09/26 10:08:54;;;;;;;12.15;5.80;;;691.90;1100.80;;;;;;5113760;28;20382;-63
2021/09/26 10:11:20;;;;;;;7.60;4.65;;;691.90;1075.20;;;;;;5113771;28;20090;-63
2021/09/26 10:13:47;;;;;;;6.70;4.90;;;692.00;1100.80;;;;;;5113474;28;20055;-63
2021/09/26 10:16:14;;;;;;;8.45;4.85;;;692.00;1075.20;;;;;;5114146;28;20370;-63
2021/09/26 10:18:43;;;;;;;9.95;5.22;;;716.80;1075.20;;;;;;5114006;28;20358;-63
2021/09/26 10:21:11;;;;;;;5.88;3.95;;;716.80;1100.80;;;;;;5113584;28;20031;-63
2021/09/26 10:23:40;;;;;;;8.07;4.72;;;716.80;1075.20;;;;;;5113802;28;20161;-63
2021/09/26 10:26:06;;;;;;;6.70;3.97;;;716.80;1049.60;;;;;;5113556;28;20485;-63
2021/09/26 10:28:34;;;;;;;7.63;3.72;;;717.00;1049.60;;;;;;5113444;28;20027;-63
2021/09/26 10:31:03;;;;;;;5.05;3.20;;;717.00;1024.00;;;;;;5113626;28;20098;-63
2021/09/26 10:33:30;;;;;;;4.18;3.42;;;717.00;1024.00;;;;;;5111901;28;20031;-63
2021/09/26 10:35:58;;;;;;;7.70;3.60;;;717.10;1024.00;;;;;;5112072;28;20051;-63
2021/09/26 10:38:25;;;;;;;5.18;3.42;;;717.20;998.40;;;;;;5113580;28;20024;-63
2021/09/26 10:40:51;;;;;;;5.65;3.22;;;717.20;998.40;;;;;;5113495;28;20072;-63
2021/09/26 10:43:25;;;;;;;4.78;3.47;;;717.30;998.40;;;;;;5113016;28;20043;-62
2021/09/26 10:46:16;;;;;;;5.45;3.60;;;717.30;998.40;;;;;;5113014;28;20036;-63
2021/09/26 10:49:12;;;;;;;12.65;3.33;;;717.40;998.40;;;;;;5113431;28;20047;-65
2021/09/26 10:51:50;;;;;;;7.88;3.17;;;717.50;998.40;;;;;;5102764;28;20350;-63
2021/09/26 10:54:22;;;;;;;3.70;3.10;;;717.50;947.20;;;;;;5105596;28;20073;-63
2021/09/26 10:56:49;;;;;;;4.05;3.13;;;717.50;972.80;;;;;;5110144;28;20047;-63
2021/09/26 10:59:15;;;;;;;5.55;3.30;;;717.50;947.20;;;;;;5112948;28;20020;-63
2021/09/26 11:01:41;;;;;;;3.95;2.85;;;717.50;947.20;;;;;;5104641;28;20549;-63
2021/09/26 11:04:14;;;;;;;4.93;3.13;;;717.60;947.20;;;;;;5112088;28;20036;-63
2021/09/26 11:06:40;;;;;;;3.38;2.03;;;717.70;921.60;;;;;;5112359;28;20022;-64
2021/09/26 11:09:08;;;;;;;7.95;3.45;;;717.70;921.60;;;;;;5112425;28;20028;-63
2021/09/26 11:11:34;;;;;;;8.75;2.95;;;717.70;921.60;;;;;;5112462;28;20435;-63
2021/09/26 11:14:00;;;;;;;3.80;2.75;;;742.40;947.20;;;;;;5112406;28;20019;-63
2021/09/26 11:16:26;;;;;;;5.78;2.90;;;742.40;921.60;;;;;;5111890;28;20105;-63
2021/09/26 11:18:55;;;;;;;7.85;2.90;;;742.50;921.60;;;;;;5113104;28;20031;-63
2021/09/26 11:21:36;;;;;;;9.93;2.70;;;742.50;947.20;;;;;;5115808;27;20532;-63
2021/09/26 11:24:03;;;;;;;8.25;2.63;;;742.50;921.60;;;;;;5113725;28;20512;-64
2021/09/26 11:26:59;;;;;;;4.47;3.05;;;742.50;921.60;;;;;;5115174;28;20103;-65
2021/09/26 11:29:27;;;;;;;3.13;2.60;;;742.60;896.00;;;;;;5115777;27;20027;-63
2021/09/26 11:31:53;;;;;;;3.75;2.42;;;742.60;921.60;;;;;;5115912;28;20058;-66
2021/09/26 11:34:43;;;;;;;4.47;2.60;;;742.60;896.00;;;;;;5114605;28;20094;-63
2021/09/26 11:37:11;;;;;;;5.20;2.50;;;742.60;896.00;;;;;;5112872;28;20035;-64
2021/09/26 11:39:39;;;;;;;5.63;2.95;;;742.60;896.00;;;;;;5112082;28;20031;-63
2021/09/26 11:43:02;;;;;;;3.80;2.78;;;742.60;896.00;;;;;;5107965;28;20051;-66
2021/09/26 11:45:32;;;;;;;3.08;2.67;;;742.60;896.00;;;;;;5049319;28;20204;-64
2021/09/26 11:48:01;;;;;;;4.75;2.90;;;742.60;896.00;;;;;;5050622;28;20040;-65
2021/09/26 11:50:31;;;;;;;6.00;3.03;;;742.60;896.00;;;;;;5051063;28;20029;-64
2021/09/26 11:52:57;;;;;;;5.97;3.03;;;742.60;921.60;;;;;;5050885;28;20036;-65
2021/09/26 11:55:23;;;;;;;7.93;3.60;;;742.60;921.60;;;;;;5051178;28;20074;-64
2021/09/26 11:58:00;;;;;;;5.28;2.92;;;742.60;921.60;;;;;;5035017;28;20037;-64
2021/09/26 12:00:28;;;;;;;5.68;3.40;;;742.70;947.20;;;;;;5052041;28;20037;-63
2021/09/26 12:02:54;;;;;;;4.32;2.97;;;742.70;921.60;;;;;;5052199;28;20029;-63
2021/09/26 12:05:36;;;;;;;4.57;3.20;;;742.90;921.60;;;;;;5035409;28;20041;-63
2021/09/26 12:08:03;;;;;;;6.45;3.40;;;742.90;921.60;;;;;;5051718;28;20052;-63
2021/09/26 12:10:30;;;;;;;6.40;3.47;;;742.90;921.60;;;;;;5035103;28;20179;-64
2021/09/26 12:12:56;;;;;;;7.68;3.72;;;742.80;921.60;;;;;;5052042;28;20037;-63